sensor_id;sensor_type;location;lat;lon;timestamp;P1;durP1;ratioP1;P2;durP2;ratioP2
1879;SDS011;49285;49.002;8.390;2024-03-23T00:54:08;9.60;;;5.87;;
1879;SDS011;49285;49.002;8.390;2024-03-23T00:56:33;7.77;;;6.33;;
1879;SDS011;49285;49.002;8.390;2024-03-23T00:58:59;6.77;;;6.07;;
1879;SDS011;49285;49.002;8.390;2024-03-23T01:01:25;9.73;;;6.73;;
1879;SDS011;49285;49.002;8.390;2024-03-23T01:03:50;5.73;;;5.20;;
1879;SDS011;49285;49.002;8.390;2024-03-23T01:06:16;5.87;;;5.30;;
1879;SDS011;49285;49.002;8.390;2024-03-23T01:08:41;6.97;;;6.27;;
1879;SDS011;49285;49.002;8.390;2024-03-23T01:11:07;8.63;;;6.33;;
1879;SDS011;49285;49.002;8.390;2024-03-23T01:13:33;8.00;;;6.20;;
1879;SDS011;49285;49.002;8.390;2024-03-23T01:15:58;7.17;;;6.17;;
1879;SDS011;49285;49.002;8.390;2024-03-23T01:18:24;7.63;;;6.57;;
1879;SDS011;49285;49.002;8.390;2024-03-23T01:20:51;7.90;;;6.17;;
1879;SDS011;49285;49.002;8.390;2024-03-23T01:23:17;7.57;;;5.97;;
1879;SDS011;49285;49.002;8.390;2024-03-23T01:25:42;7.10;;;5.70;;
1879;SDS011;49285;49.002;8.390;2024-03-23T01:28:08;9.30;;;5.93;;
1879;SDS011;49285;49.002;8.390;2024-03-23T01:30:34;6.80;;;6.00;;
1879;SDS011;49285;49.002;8.390;2024-03-23T01:33:00;7.40;;;5.60;;
1879;SDS011;49285;49.002;8.390;2024-03-23T01:35:26;6.80;;;5.13;;
1879;SDS011;49285;49.002;8.390;2024-03-23T01:37:52;6.40;;;5.47;;
1879;SDS011;49285;49.002;8.390;2024-03-23T01:40:18;7.13;;;5.30;;
1879;SDS011;49285;49.002;8.390;2024-03-23T01:42:54;8.90;;;5.30;;
1879;SDS011;49285;49.002;8.390;2024-03-23T01:45:21;5.70;;;5.17;;
1879;SDS011;49285;49.002;8.390;2024-03-23T01:47:46;6.87;;;5.23;;
1879;SDS011;49285;49.002;8.390;2024-03-23T01:50:12;5.90;;;5.30;;
1879;SDS011;49285;49.002;8.390;2024-03-23T01:52:38;7.43;;;5.27;;
1879;SDS011;49285;49.002;8.390;2024-03-23T01:55:04;6.07;;;5.30;;
1879;SDS011;49285;49.002;8.390;2024-03-23T01:57:30;6.20;;;5.57;;
1879;SDS011;49285;49.002;8.390;2024-03-23T01:59:56;6.00;;;5.10;;
1879;SDS011;49285;49.002;8.390;2024-03-23T02:02:21;5.77;;;5.03;;
1879;SDS011;49285;49.002;8.390;2024-03-23T02:04:47;6.00;;;5.13;;
1879;SDS011;49285;49.002;8.390;2024-03-23T02:07:13;6.20;;;4.80;;
1879;SDS011;49285;49.002;8.390;2024-03-23T02:09:38;9.57;;;5.10;;
1879;SDS011;49285;49.002;8.390;2024-03-23T02:12:04;6.93;;;5.23;;
1879;SDS011;49285;49.002;8.390;2024-03-23T02:14:30;6.67;;;5.43;;
1879;SDS011;49285;49.002;8.390;2024-03-23T02:16:57;5.20;;;4.17;;
1879;SDS011;49285;49.002;8.390;2024-03-23T02:19:23;6.07;;;5.30;;
1879;SDS011;49285;49.002;8.390;2024-03-23T02:21:49;7.77;;;4.40;;
1879;SDS011;49285;49.002;8.390;2024-03-23T02:24:14;7.97;;;6.30;;
1879;SDS011;49285;49.002;8.390;2024-03-23T02:26:40;7.70;;;5.30;;
1879;SDS011;49285;49.002;8.390;2024-03-23T02:29:05;8.80;;;5.90;;
1879;SDS011;49285;49.002;8.390;2024-03-23T02:31:31;7.87;;;5.80;;
1879;SDS011;49285;49.002;8.390;2024-03-23T02:33:57;6.10;;;4.90;;
1879;SDS011;49285;49.002;8.390;2024-03-23T02:36:22;5.90;;;4.67;;
1879;SDS011;49285;49.002;8.390;2024-03-23T02:38:48;6.20;;;5.03;;
1879;SDS011;49285;49.002;8.390;2024-03-23T02:41:13;5.93;;;4.70;;
1879;SDS011;49285;49.002;8.390;2024-03-23T02:43:39;6.73;;;5.27;;
1879;SDS011;49285;49.002;8.390;2024-03-23T02:46:05;5.93;;;5.33;;
1879;SDS011;49285;49.002;8.390;2024-03-23T02:48:30;8.00;;;6.23;;
1879;SDS011;49285;49.002;8.390;2024-03-23T02:50:56;7.67;;;6.20;;
1879;SDS011;49285;49.002;8.390;2024-03-23T02:53:22;6.83;;;5.63;;
1879;SDS011;49285;49.002;8.390;2024-03-23T02:55:47;7.33;;;5.77;;
1879;SDS011;49285;49.002;8.390;2024-03-23T02:58:13;8.37;;;6.37;;
1879;SDS011;49285;49.002;8.390;2024-03-23T03:00:38;7.20;;;6.17;;
1879;SDS011;49285;49.002;8.390;2024-03-23T03:03:04;8.40;;;5.93;;
1879;SDS011;49285;49.002;8.390;2024-03-23T03:05:30;6.50;;;5.80;;
1879;SDS011;49285;49.002;8.390;2024-03-23T03:07:55;9.93;;;6.80;;
1879;SDS011;49285;49.002;8.390;2024-03-23T03:10:21;7.80;;;6.63;;
1879;SDS011;49285;49.002;8.390;2024-03-23T03:12:46;7.00;;;6.27;;
1879;SDS011;49285;49.002;8.390;2024-03-23T03:15:12;8.40;;;7.60;;
1879;SDS011;49285;49.002;8.390;2024-03-23T03:17:38;8.20;;;7.27;;
1879;SDS011;49285;49.002;8.390;2024-03-23T03:20:03;11.53;;;7.43;;
1879;SDS011;49285;49.002;8.390;2024-03-23T03:22:30;11.47;;;8.77;;
1879;SDS011;49285;49.002;8.390;2024-03-23T03:24:55;12.70;;;9.00;;
1879;SDS011;49285;49.002;8.390;2024-03-23T03:27:21;10.17;;;8.63;;
1879;SDS011;49285;49.002;8.390;2024-03-23T03:29:48;10.33;;;8.40;;
1879;SDS011;49285;49.002;8.390;2024-03-23T03:32:13;11.43;;;9.20;;
1879;SDS011;49285;49.002;8.390;2024-03-23T03:34:39;13.60;;;9.40;;
1879;SDS011;49285;49.002;8.390;2024-03-23T03:37:04;12.03;;;8.70;;
1879;SDS011;49285;49.002;8.390;2024-03-23T03:39:30;13.30;;;9.60;;
1879;SDS011;49285;49.002;8.390;2024-03-23T03:41:56;11.67;;;9.33;;
1879;SDS011;49285;49.002;8.390;2024-03-23T03:44:21;14.23;;;9.73;;
1879;SDS011;49285;49.002;8.390;2024-03-23T03:46:47;15.13;;;8.43;;
1879;SDS011;49285;49.002;8.390;2024-03-23T03:49:12;10.63;;;9.40;;
1879;SDS011;49285;49.002;8.390;2024-03-23T03:51:38;12.30;;;9.60;;
1879;SDS011;49285;49.002;8.390;2024-03-23T03:54:03;14.37;;;11.00;;
1879;SDS011;49285;49.002;8.390;2024-03-23T03:56:29;13.93;;;10.00;;
1879;SDS011;49285;49.002;8.390;2024-03-23T03:58:54;10.67;;;9.53;;
1879;SDS011;49285;49.002;8.390;2024-03-23T04:01:20;14.70;;;11.20;;
1879;SDS011;49285;49.002;8.390;2024-03-23T04:03:46;12.47;;;10.23;;
1879;SDS011;49285;49.002;8.390;2024-03-23T04:06:11;13.47;;;10.90;;
1879;SDS011;49285;49.002;8.390;2024-03-23T04:08:37;13.53;;;10.27;;
1879;SDS011;49285;49.002;8.390;2024-03-23T04:11:03;12.20;;;10.93;;
1879;SDS011;49285;49.002;8.390;2024-03-23T04:13:28;16.50;;;10.90;;
1879;SDS011;49285;49.002;8.390;2024-03-23T04:15:57;14.40;;;11.63;;
1879;SDS011;49285;49.002;8.390;2024-03-23T04:18:23;16.63;;;11.00;;
1879;SDS011;49285;49.002;8.390;2024-03-23T04:20:49;19.13;;;11.60;;
1879;SDS011;49285;49.002;8.390;2024-03-23T04:23:14;15.13;;;11.40;;
1879;SDS011;49285;49.002;8.390;2024-03-23T04:25:40;12.00;;;9.20;;
1879;SDS011;49285;49.002;8.390;2024-03-23T04:28:05;14.23;;;10.40;;
1879;SDS011;49285;49.002;8.390;2024-03-23T04:30:31;12.80;;;10.70;;
1879;SDS011;49285;49.002;8.390;2024-03-23T04:32:57;10.43;;;7.40;;
1879;SDS011;49285;49.002;8.390;2024-03-23T04:35:23;11.33;;;9.20;;
1879;SDS011;49285;49.002;8.390;2024-03-23T04:37:52;11.40;;;7.93;;
1879;SDS011;49285;49.002;8.390;2024-03-23T04:40:19;10.23;;;6.93;;
1879;SDS011;49285;49.002;8.390;2024-03-23T04:42:45;11.83;;;9.10;;
1879;SDS011;49285;49.002;8.390;2024-03-23T04:45:10;9.80;;;8.10;;
1879;SDS011;49285;49.002;8.390;2024-03-23T04:47:37;11.07;;;8.20;;
1879;SDS011;49285;49.002;8.390;2024-03-23T04:50:03;10.40;;;7.47;;
1879;SDS011;49285;49.002;8.390;2024-03-23T04:52:30;8.40;;;7.40;;
1879;SDS011;49285;49.002;8.390;2024-03-23T04:54:55;10.07;;;6.87;;
1879;SDS011;49285;49.002;8.390;2024-03-23T04:57:21;10.20;;;7.30;;
1879;SDS011;49285;49.002;8.390;2024-03-23T04:59:47;11.20;;;7.67;;
1879;SDS011;49285;49.002;8.390;2024-03-23T05:02:13;10.00;;;7.20;;
1879;SDS011;49285;49.002;8.390;2024-03-23T05:04:39;8.70;;;7.10;;
1879;SDS011;49285;49.002;8.390;2024-03-23T05:07:05;10.20;;;6.83;;
1879;SDS011;49285;49.002;8.390;2024-03-23T05:09:31;7.87;;;6.53;;
1879;SDS011;49285;49.002;8.390;2024-03-23T05:11:58;6.67;;;5.73;;
1879;SDS011;49285;49.002;8.390;2024-03-23T05:14:25;6.90;;;5.50;;
1879;SDS011;49285;49.002;8.390;2024-03-23T05:16:51;6.27;;;4.90;;
1879;SDS011;49285;49.002;8.390;2024-03-23T05:19:17;6.80;;;5.03;;
1879;SDS011;49285;49.002;8.390;2024-03-23T05:21:43;5.90;;;4.70;;
1879;SDS011;49285;49.002;8.390;2024-03-23T05:24:08;4.43;;;3.40;;
1879;SDS011;49285;49.002;8.390;2024-03-23T05:26:34;4.30;;;3.10;;
1879;SDS011;49285;49.002;8.390;2024-03-23T05:29:00;3.57;;;2.83;;
1879;SDS011;49285;49.002;8.390;2024-03-23T05:31:27;4.60;;;3.23;;
1879;SDS011;49285;49.002;8.390;2024-03-23T05:33:53;3.33;;;2.60;;
1879;SDS011;49285;49.002;8.390;2024-03-23T05:36:19;3.67;;;2.60;;
1879;SDS011;49285;49.002;8.390;2024-03-23T05:38:45;3.50;;;2.33;;
1879;SDS011;49285;49.002;8.390;2024-03-23T05:41:11;2.80;;;2.23;;
1879;SDS011;49285;49.002;8.390;2024-03-23T05:43:37;5.40;;;2.30;;
1879;SDS011;49285;49.002;8.390;2024-03-23T05:46:02;3.23;;;1.93;;
1879;SDS011;49285;49.002;8.390;2024-03-23T05:48:30;4.70;;;2.20;;
1879;SDS011;49285;49.002;8.390;2024-03-23T05:50:55;4.13;;;2.30;;
1879;SDS011;49285;49.002;8.390;2024-03-23T05:53:22;2.87;;;2.30;;
1879;SDS011;49285;49.002;8.390;2024-03-23T05:55:48;3.70;;;3.03;;
1879;SDS011;49285;49.002;8.390;2024-03-23T05:58:15;2.33;;;1.80;;
1879;SDS011;49285;49.002;8.390;2024-03-23T06:00:41;2.97;;;2.40;;
1879;SDS011;49285;49.002;8.390;2024-03-23T06:03:07;2.67;;;2.00;;
1879;SDS011;49285;49.002;8.390;2024-03-23T06:05:33;2.40;;;1.93;;
1879;SDS011;49285;49.002;8.390;2024-03-23T06:07:59;2.57;;;2.00;;
1879;SDS011;49285;49.002;8.390;2024-03-23T06:10:24;2.50;;;1.70;;
1879;SDS011;49285;49.002;8.390;2024-03-23T06:12:50;2.60;;;1.50;;
1879;SDS011;49285;49.002;8.390;2024-03-23T06:15:17;2.13;;;1.50;;
1879;SDS011;49285;49.002;8.390;2024-03-23T06:17:43;2.87;;;1.70;;
1879;SDS011;49285;49.002;8.390;2024-03-23T06:20:09;2.13;;;1.70;;
1879;SDS011;49285;49.002;8.390;2024-03-23T06:22:35;1.90;;;1.60;;
1879;SDS011;49285;49.002;8.390;2024-03-23T06:25:01;2.03;;;1.57;;
1879;SDS011;49285;49.002;8.390;2024-03-23T06:27:27;3.10;;;1.50;;
1879;SDS011;49285;49.002;8.390;2024-03-23T06:29:53;2.17;;;1.53;;
1879;SDS011;49285;49.002;8.390;2024-03-23T06:32:18;2.30;;;1.50;;
1879;SDS011;49285;49.002;8.390;2024-03-23T06:34:45;4.00;;;1.60;;
1879;SDS011;49285;49.002;8.390;2024-03-23T06:37:11;1.90;;;1.50;;
1879;SDS011;49285;49.002;8.390;2024-03-23T06:39:37;2.10;;;1.53;;
1879;SDS011;49285;49.002;8.390;2024-03-23T06:42:03;2.27;;;1.47;;
1879;SDS011;49285;49.002;8.390;2024-03-23T06:44:29;1.80;;;1.53;;
1879;SDS011;49285;49.002;8.390;2024-03-23T06:46:55;2.00;;;1.60;;
1879;SDS011;49285;49.002;8.390;2024-03-23T06:49:22;1.90;;;1.40;;
1879;SDS011;49285;49.002;8.390;2024-03-23T06:51:48;2.10;;;1.50;;
1879;SDS011;49285;49.002;8.390;2024-03-23T06:54:14;1.93;;;1.37;;
1879;SDS011;49285;49.002;8.390;2024-03-23T06:56:41;2.17;;;1.57;;
1879;SDS011;49285;49.002;8.390;2024-03-23T06:59:07;2.00;;;1.70;;
1879;SDS011;49285;49.002;8.390;2024-03-23T07:01:32;1.90;;;1.47;;
1879;SDS011;49285;49.002;8.390;2024-03-23T07:03:58;2.10;;;1.60;;
1879;SDS011;49285;49.002;8.390;2024-03-23T07:06:23;2.23;;;1.53;;
1879;SDS011;49285;49.002;8.390;2024-03-23T07:08:49;2.33;;;1.80;;
1879;SDS011;49285;49.002;8.390;2024-03-23T07:11:21;1.90;;;1.40;;
1879;SDS011;49285;49.002;8.390;2024-03-23T07:13:49;1.80;;;1.40;;
1879;SDS011;49285;49.002;8.390;2024-03-23T07:16:15;2.20;;;1.70;;
1879;SDS011;49285;49.002;8.390;2024-03-23T07:18:41;2.10;;;1.50;;
1879;SDS011;49285;49.002;8.390;2024-03-23T07:21:07;1.83;;;1.40;;
1879;SDS011;49285;49.002;8.390;2024-03-23T07:23:33;1.90;;;1.50;;
1879;SDS011;49285;49.002;8.390;2024-03-23T07:26:01;2.10;;;1.40;;
1879;SDS011;49285;49.002;8.390;2024-03-23T07:28:28;2.00;;;1.47;;
1879;SDS011;49285;49.002;8.390;2024-03-23T07:33:52;1.80;;;1.40;;
1879;SDS011;49285;49.002;8.390;2024-03-23T07:36:17;2.07;;;1.50;;
1879;SDS011;49285;49.002;8.390;2024-03-23T07:38:43;1.80;;;1.33;;
1879;SDS011;49285;49.002;8.390;2024-03-23T07:41:13;1.70;;;1.30;;
1879;SDS011;49285;49.002;8.390;2024-03-23T07:43:42;1.80;;;1.40;;
1879;SDS011;49285;49.002;8.390;2024-03-23T07:46:07;1.80;;;1.40;;
1879;SDS011;49285;49.002;8.390;2024-03-23T07:48:33;3.40;;;2.70;;
1879;SDS011;49285;49.002;8.390;2024-03-23T07:51:02;2.00;;;1.50;;
1879;SDS011;49285;49.002;8.390;2024-03-23T07:53:32;2.13;;;1.77;;
1879;SDS011;49285;49.002;8.390;2024-03-23T07:55:59;1.87;;;1.60;;
1879;SDS011;49285;49.002;8.390;2024-03-23T07:58:27;1.90;;;1.50;;
1879;SDS011;49285;49.002;8.390;2024-03-23T08:00:53;2.53;;;2.00;;
1879;SDS011;49285;49.002;8.390;2024-03-23T08:03:19;2.80;;;2.00;;
1879;SDS011;49285;49.002;8.390;2024-03-23T08:05:45;2.07;;;1.60;;
1879;SDS011;49285;49.002;8.390;2024-03-23T08:08:11;2.40;;;1.90;;
1879;SDS011;49285;49.002;8.390;2024-03-23T08:10:37;3.07;;;1.97;;
1879;SDS011;49285;49.002;8.390;2024-03-23T08:13:12;4.00;;;1.97;;
1879;SDS011;49285;49.002;8.390;2024-03-23T08:15:37;4.80;;;2.00;;
1879;SDS011;49285;49.002;8.390;2024-03-23T08:18:03;7.13;;;1.90;;
1879;SDS011;49285;49.002;8.390;2024-03-23T08:20:29;5.03;;;2.30;;
1879;SDS011;49285;49.002;8.390;2024-03-23T08:22:55;2.97;;;2.13;;
1879;SDS011;49285;49.002;8.390;2024-03-23T08:25:21;7.00;;;3.33;;
1879;SDS011;49285;49.002;8.390;2024-03-23T08:27:46;5.27;;;2.70;;
1879;SDS011;49285;49.002;8.390;2024-03-23T08:30:12;4.10;;;2.90;;
1879;SDS011;49285;49.002;8.390;2024-03-23T08:32:38;9.67;;;3.40;;
1879;SDS011;49285;49.002;8.390;2024-03-23T08:35:03;4.83;;;3.20;;
1879;SDS011;49285;49.002;8.390;2024-03-23T08:37:29;7.00;;;3.43;;
1879;SDS011;49285;49.002;8.390;2024-03-23T08:39:55;4.10;;;2.90;;
1879;SDS011;49285;49.002;8.390;2024-03-23T08:42:20;6.23;;;3.40;;
1879;SDS011;49285;49.002;8.390;2024-03-23T08:44:46;6.93;;;3.50;;
1879;SDS011;49285;49.002;8.390;2024-03-23T08:47:15;6.17;;;3.80;;
1879;SDS011;49285;49.002;8.390;2024-03-23T08:49:40;10.00;;;3.57;;
1879;SDS011;49285;49.002;8.390;2024-03-23T08:52:06;7.23;;;4.20;;
1879;SDS011;49285;49.002;8.390;2024-03-23T08:54:32;4.73;;;3.23;;
1879;SDS011;49285;49.002;8.390;2024-03-23T08:56:58;5.30;;;3.47;;
1879;SDS011;49285;49.002;8.390;2024-03-23T08:59:24;6.87;;;3.67;;
1879;SDS011;49285;49.002;8.390;2024-03-23T09:01:49;6.40;;;3.97;;
1879;SDS011;49285;49.002;8.390;2024-03-23T09:04:15;5.17;;;4.03;;
1879;SDS011;49285;49.002;8.390;2024-03-23T09:06:43;6.30;;;3.47;;
1879;SDS011;49285;49.002;8.390;2024-03-23T09:09:09;5.90;;;3.47;;
1879;SDS011;49285;49.002;8.390;2024-03-23T09:11:34;10.33;;;3.63;;
1879;SDS011;49285;49.002;8.390;2024-03-23T09:14:00;6.40;;;3.27;;
1879;SDS011;49285;49.002;8.390;2024-03-23T09:16:26;9.47;;;3.80;;
1879;SDS011;49285;49.002;8.390;2024-03-23T09:18:51;6.07;;;2.90;;
1879;SDS011;49285;49.002;8.390;2024-03-23T09:21:17;7.20;;;3.13;;
1879;SDS011;49285;49.002;8.390;2024-03-23T09:23:43;4.83;;;3.00;;
1879;SDS011;49285;49.002;8.390;2024-03-23T09:26:09;5.90;;;3.20;;
1879;SDS011;49285;49.002;8.390;2024-03-23T09:28:35;9.33;;;3.63;;
1879;SDS011;49285;49.002;8.390;2024-03-23T09:33:33;10.47;;;5.27;;
1879;SDS011;49285;49.002;8.390;2024-03-23T09:36:03;5.20;;;3.37;;
1879;SDS011;49285;49.002;8.390;2024-03-23T09:38:29;7.57;;;4.30;;
1879;SDS011;49285;49.002;8.390;2024-03-23T09:40:55;6.67;;;3.60;;
1879;SDS011;49285;49.002;8.390;2024-03-23T09:43:21;10.80;;;3.90;;
1879;SDS011;49285;49.002;8.390;2024-03-23T09:45:47;7.83;;;3.50;;
1879;SDS011;49285;49.002;8.390;2024-03-23T09:48:14;12.00;;;4.23;;
1879;SDS011;49285;49.002;8.390;2024-03-23T09:50:40;5.93;;;4.20;;
1879;SDS011;49285;49.002;8.390;2024-03-23T09:53:07;7.13;;;4.57;;
1879;SDS011;49285;49.002;8.390;2024-03-23T09:55:34;8.10;;;4.00;;
1879;SDS011;49285;49.002;8.390;2024-03-23T09:58:01;11.33;;;6.60;;
1879;SDS011;49285;49.002;8.390;2024-03-23T10:00:27;5.97;;;4.03;;
1879;SDS011;49285;49.002;8.390;2024-03-23T10:02:56;5.03;;;3.50;;
1879;SDS011;49285;49.002;8.390;2024-03-23T10:05:26;9.50;;;5.90;;
1879;SDS011;49285;49.002;8.390;2024-03-23T10:07:52;7.30;;;4.27;;
1879;SDS011;49285;49.002;8.390;2024-03-23T10:10:18;7.27;;;4.30;;
1879;SDS011;49285;49.002;8.390;2024-03-23T10:12:46;6.30;;;5.13;;
1879;SDS011;49285;49.002;8.390;2024-03-23T10:15:19;12.70;;;5.10;;
1879;SDS011;49285;49.002;8.390;2024-03-23T10:17:50;10.73;;;4.83;;
1879;SDS011;49285;49.002;8.390;2024-03-23T10:20:19;7.07;;;4.37;;
1879;SDS011;49285;49.002;8.390;2024-03-23T10:22:49;10.40;;;4.77;;
1879;SDS011;49285;49.002;8.390;2024-03-23T10:25:16;6.10;;;4.07;;
1879;SDS011;49285;49.002;8.390;2024-03-23T10:27:42;12.17;;;5.50;;
1879;SDS011;49285;49.002;8.390;2024-03-23T10:30:09;10.63;;;5.00;;
1879;SDS011;49285;49.002;8.390;2024-03-23T10:32:41;5.67;;;5.07;;
1879;SDS011;49285;49.002;8.390;2024-03-23T10:35:14;6.50;;;3.87;;
1879;SDS011;49285;49.002;8.390;2024-03-23T10:37:41;9.20;;;4.27;;
1879;SDS011;49285;49.002;8.390;2024-03-23T10:40:09;8.00;;;4.90;;
1879;SDS011;49285;49.002;8.390;2024-03-23T10:42:37;7.60;;;4.87;;
1879;SDS011;49285;49.002;8.390;2024-03-23T10:45:04;12.23;;;5.50;;
1879;SDS011;49285;49.002;8.390;2024-03-23T10:47:31;8.13;;;4.63;;
1879;SDS011;49285;49.002;8.390;2024-03-23T10:49:57;9.40;;;3.93;;
1879;SDS011;49285;49.002;8.390;2024-03-23T10:52:23;9.20;;;4.20;;
1879;SDS011;49285;49.002;8.390;2024-03-23T10:54:48;6.63;;;4.10;;
1879;SDS011;49285;49.002;8.390;2024-03-23T10:57:17;6.43;;;3.90;;
1879;SDS011;49285;49.002;8.390;2024-03-23T10:59:47;9.90;;;4.20;;
1879;SDS011;49285;49.002;8.390;2024-03-23T11:02:19;7.07;;;3.83;;
1879;SDS011;49285;49.002;8.390;2024-03-23T11:04:46;7.73;;;4.10;;
1879;SDS011;49285;49.002;8.390;2024-03-23T11:09:49;8.07;;;3.90;;
1879;SDS011;49285;49.002;8.390;2024-03-23T11:14:52;6.33;;;2.90;;
1879;SDS011;49285;49.002;8.390;2024-03-23T11:17:24;8.03;;;3.33;;
1879;SDS011;49285;49.002;8.390;2024-03-23T11:25:20;7.70;;;4.20;;
1879;SDS011;49285;49.002;8.390;2024-03-23T11:27:49;5.50;;;3.37;;
1879;SDS011;49285;49.002;8.390;2024-03-23T11:32:47;12.93;;;3.40;;
1879;SDS011;49285;49.002;8.390;2024-03-23T11:35:26;5.63;;;3.07;;
1879;SDS011;49285;49.002;8.390;2024-03-23T11:40:31;5.63;;;3.20;;
1879;SDS011;49285;49.002;8.390;2024-03-23T11:42:58;8.73;;;4.10;;
1879;SDS011;49285;49.002;8.390;2024-03-23T11:45:25;6.37;;;4.07;;
1879;SDS011;49285;49.002;8.390;2024-03-23T11:50:32;6.67;;;3.47;;
1879;SDS011;49285;49.002;8.390;2024-03-23T11:55:49;5.63;;;3.70;;
1879;SDS011;49285;49.002;8.390;2024-03-23T11:58:19;7.53;;;3.70;;
1879;SDS011;49285;49.002;8.390;2024-03-23T12:00:49;6.57;;;3.90;;
1879;SDS011;49285;49.002;8.390;2024-03-23T12:03:17;5.97;;;2.70;;
1879;SDS011;49285;49.002;8.390;2024-03-23T12:05:50;7.20;;;3.50;;
1879;SDS011;49285;49.002;8.390;2024-03-23T12:08:33;7.83;;;3.43;;
1879;SDS011;49285;49.002;8.390;2024-03-23T12:11:16;11.33;;;4.37;;
1879;SDS011;49285;49.002;8.390;2024-03-23T12:13:43;8.63;;;3.70;;
1879;SDS011;49285;49.002;8.390;2024-03-23T12:16:12;7.00;;;3.50;;
1879;SDS011;49285;49.002;8.390;2024-03-23T12:18:39;8.30;;;3.60;;
1879;SDS011;49285;49.002;8.390;2024-03-23T12:21:06;9.63;;;3.53;;
1879;SDS011;49285;49.002;8.390;2024-03-23T12:23:32;5.30;;;2.90;;
1879;SDS011;49285;49.002;8.390;2024-03-23T12:25:57;5.90;;;3.30;;
1879;SDS011;49285;49.002;8.390;2024-03-23T12:28:23;6.13;;;3.10;;
1879;SDS011;49285;49.002;8.390;2024-03-23T12:30:49;7.93;;;3.20;;
1879;SDS011;49285;49.002;8.390;2024-03-23T12:33:14;5.97;;;3.43;;
1879;SDS011;49285;49.002;8.390;2024-03-23T12:35:40;13.63;;;3.93;;
1879;SDS011;49285;49.002;8.390;2024-03-23T12:38:06;10.20;;;3.50;;
1879;SDS011;49285;49.002;8.390;2024-03-23T12:40:32;4.20;;;3.40;;
1879;SDS011;49285;49.002;8.390;2024-03-23T12:42:57;9.67;;;3.57;;
1879;SDS011;49285;49.002;8.390;2024-03-23T12:45:23;7.37;;;3.43;;
1879;SDS011;49285;49.002;8.390;2024-03-23T12:47:48;5.97;;;3.03;;
1879;SDS011;49285;49.002;8.390;2024-03-23T12:50:14;9.03;;;3.67;;
1879;SDS011;49285;49.002;8.390;2024-03-23T12:52:40;6.60;;;3.40;;
1879;SDS011;49285;49.002;8.390;2024-03-23T12:55:05;5.80;;;2.50;;
1879;SDS011;49285;49.002;8.390;2024-03-23T12:57:31;5.37;;;2.30;;
1879;SDS011;49285;49.002;8.390;2024-03-23T12:59:58;4.00;;;1.63;;
1879;SDS011;49285;49.002;8.390;2024-03-23T13:02:24;4.00;;;2.20;;
1879;SDS011;49285;49.002;8.390;2024-03-23T13:04:50;5.23;;;2.10;;
1879;SDS011;49285;49.002;8.390;2024-03-23T13:07:16;2.30;;;1.70;;
1879;SDS011;49285;49.002;8.390;2024-03-23T13:09:42;7.03;;;4.50;;
1879;SDS011;49285;49.002;8.390;2024-03-23T13:12:08;5.47;;;4.63;;
1879;SDS011;49285;49.002;8.390;2024-03-23T13:14:34;3.30;;;2.00;;
1879;SDS011;49285;49.002;8.390;2024-03-23T13:17:00;2.43;;;2.00;;
1879;SDS011;49285;49.002;8.390;2024-03-23T13:19:27;2.77;;;1.93;;
1879;SDS011;49285;49.002;8.390;2024-03-23T13:21:55;6.00;;;1.93;;
1879;SDS011;49285;49.002;8.390;2024-03-23T13:24:25;4.80;;;2.60;;
1879;SDS011;49285;49.002;8.390;2024-03-23T13:26:51;5.00;;;2.00;;
1879;SDS011;49285;49.002;8.390;2024-03-23T13:29:18;6.30;;;2.53;;
1879;SDS011;49285;49.002;8.390;2024-03-23T13:31:44;5.17;;;2.73;;
1879;SDS011;49285;49.002;8.390;2024-03-23T13:34:13;2.93;;;2.10;;
1879;SDS011;49285;49.002;8.390;2024-03-23T13:36:43;2.60;;;2.10;;
1879;SDS011;49285;49.002;8.390;2024-03-23T13:39:12;2.53;;;1.97;;
1879;SDS011;49285;49.002;8.390;2024-03-23T13:41:39;8.97;;;2.43;;
1879;SDS011;49285;49.002;8.390;2024-03-23T13:44:06;4.53;;;2.57;;
1879;SDS011;49285;49.002;8.390;2024-03-23T13:46:32;5.23;;;2.30;;
1879;SDS011;49285;49.002;8.390;2024-03-23T13:48:58;6.73;;;2.30;;
1879;SDS011;49285;49.002;8.390;2024-03-23T13:51:24;2.70;;;2.23;;
1879;SDS011;49285;49.002;8.390;2024-03-23T13:53:52;4.47;;;2.00;;
1879;SDS011;49285;49.002;8.390;2024-03-23T13:56:26;3.43;;;1.97;;
1879;SDS011;49285;49.002;8.390;2024-03-23T13:58:55;3.60;;;2.00;;
1879;SDS011;49285;49.002;8.390;2024-03-23T14:01:21;3.60;;;2.40;;
1879;SDS011;49285;49.002;8.390;2024-03-23T14:03:46;2.77;;;2.00;;
1879;SDS011;49285;49.002;8.390;2024-03-23T14:06:12;3.77;;;2.40;;
1879;SDS011;49285;49.002;8.390;2024-03-23T14:08:37;4.53;;;2.30;;
1879;SDS011;49285;49.002;8.390;2024-03-23T14:11:06;3.40;;;1.90;;
1879;SDS011;49285;49.002;8.390;2024-03-23T14:13:33;4.33;;;2.40;;
1879;SDS011;49285;49.002;8.390;2024-03-23T14:15:59;4.10;;;1.83;;
1879;SDS011;49285;49.002;8.390;2024-03-23T14:18:25;3.87;;;2.10;;
1879;SDS011;49285;49.002;8.390;2024-03-23T14:20:51;3.30;;;2.00;;
1879;SDS011;49285;49.002;8.390;2024-03-23T14:23:18;2.70;;;1.70;;
1879;SDS011;49285;49.002;8.390;2024-03-23T14:25:44;3.13;;;1.97;;
1879;SDS011;49285;49.002;8.390;2024-03-23T14:28:10;2.83;;;2.00;;
1879;SDS011;49285;49.002;8.390;2024-03-23T14:30:39;2.87;;;1.90;;
1879;SDS011;49285;49.002;8.390;2024-03-23T14:33:08;2.57;;;1.80;;
1879;SDS011;49285;49.002;8.390;2024-03-23T14:35:34;2.30;;;1.93;;
1879;SDS011;49285;49.002;8.390;2024-03-23T14:38:01;2.73;;;1.80;;
1879;SDS011;49285;49.002;8.390;2024-03-23T14:40:27;3.43;;;1.87;;
1879;SDS011;49285;49.002;8.390;2024-03-23T14:42:53;4.80;;;1.80;;
1879;SDS011;49285;49.002;8.390;2024-03-23T14:45:19;5.07;;;2.03;;
1879;SDS011;49285;49.002;8.390;2024-03-23T14:47:46;3.20;;;1.93;;
1879;SDS011;49285;49.002;8.390;2024-03-23T14:50:12;4.70;;;2.37;;
1879;SDS011;49285;49.002;8.390;2024-03-23T14:52:40;3.83;;;2.10;;
1879;SDS011;49285;49.002;8.390;2024-03-23T14:55:07;4.70;;;2.10;;
1879;SDS011;49285;49.002;8.390;2024-03-23T14:57:33;3.00;;;1.90;;
1879;SDS011;49285;49.002;8.390;2024-03-23T15:00:00;4.47;;;2.10;;
1879;SDS011;49285;49.002;8.390;2024-03-23T15:02:25;4.57;;;2.17;;
1879;SDS011;49285;49.002;8.390;2024-03-23T15:04:53;3.03;;;2.40;;
1879;SDS011;49285;49.002;8.390;2024-03-23T15:07:19;2.37;;;1.77;;
1879;SDS011;49285;49.002;8.390;2024-03-23T15:09:44;3.20;;;1.80;;
1879;SDS011;49285;49.002;8.390;2024-03-23T15:12:10;3.57;;;1.93;;
1879;SDS011;49285;49.002;8.390;2024-03-23T15:14:36;3.00;;;2.00;;
1879;SDS011;49285;49.002;8.390;2024-03-23T15:17:02;2.73;;;1.97;;
1879;SDS011;49285;49.002;8.390;2024-03-23T15:19:32;6.57;;;2.33;;
1879;SDS011;49285;49.002;8.390;2024-03-23T15:21:57;3.97;;;2.17;;
1879;SDS011;49285;49.002;8.390;2024-03-23T15:24:23;2.37;;;2.17;;
1879;SDS011;49285;49.002;8.390;2024-03-23T15:26:49;8.20;;;2.33;;
1879;SDS011;49285;49.002;8.390;2024-03-23T15:29:17;4.00;;;2.13;;
1879;SDS011;49285;49.002;8.390;2024-03-23T15:31:43;3.10;;;1.93;;
1879;SDS011;49285;49.002;8.390;2024-03-23T15:34:10;5.03;;;2.07;;
1879;SDS011;49285;49.002;8.390;2024-03-23T15:36:36;3.43;;;1.97;;
1879;SDS011;49285;49.002;8.390;2024-03-23T15:39:03;3.50;;;2.60;;
1879;SDS011;49285;49.002;8.390;2024-03-23T15:41:32;3.40;;;2.10;;
1879;SDS011;49285;49.002;8.390;2024-03-23T15:43:59;5.67;;;2.40;;
1879;SDS011;49285;49.002;8.390;2024-03-23T15:46:24;3.47;;;2.00;;
1879;SDS011;49285;49.002;8.390;2024-03-23T15:48:50;4.57;;;2.20;;
1879;SDS011;49285;49.002;8.390;2024-03-23T15:51:16;3.00;;;1.87;;
1879;SDS011;49285;49.002;8.390;2024-03-23T15:53:43;3.07;;;2.10;;
1879;SDS011;49285;49.002;8.390;2024-03-23T15:56:08;7.53;;;2.40;;
1879;SDS011;49285;49.002;8.390;2024-03-23T15:58:35;4.70;;;2.10;;
1879;SDS011;49285;49.002;8.390;2024-03-23T16:01:01;4.00;;;2.27;;
1879;SDS011;49285;49.002;8.390;2024-03-23T16:03:29;3.60;;;2.00;;
1879;SDS011;49285;49.002;8.390;2024-03-23T16:06:02;4.33;;;2.10;;
1879;SDS011;49285;49.002;8.390;2024-03-23T16:08:29;3.53;;;2.00;;
1879;SDS011;49285;49.002;8.390;2024-03-23T16:11:00;3.00;;;2.03;;
1879;SDS011;49285;49.002;8.390;2024-03-23T16:13:25;5.03;;;2.50;;